Aviation Digital Data Service (ADDS)

Output produced by METARs form (0517 UTC 24 January 2019)
found at http://www.aviationweather.gov/metar/data/
 
Forecast for: COR
Text: TAF COR BGTL 232005Z 2320/2424 11009KT 9999 SCT080 QNH2975INS WND 070V170
Forecast period: 2000 UTC 23 January 2019 to 1000 UTC 24 January 2019
Forecast type: FROM: standard forecast or significant change
Winds: from the ESE (110 degrees) at 10 MPH (9 knots; 4.6 m/s)
Visibility: 6 or more miles 10+ km)
Ceiling: at least 12,000 feet AGL
Clouds: scattered clouds at 8000 feet AGL
Weather: no significant weather forecast for this period
Text: BECMG 2410/2411 12012KT 9999 BKN050 QNH2983INS TXM27/2418Z TNM31/2403Z LAST NO AMDS AFT 2320 NEXT 2410
Forecast period: 1000 UTC 24 January 2019 to 0000 UTC 25 January 2019
Forecast type: BECOMING: Conditions expected to become as follows by 1100 UTC 24 January 2019
Winds: from the ESE (120 degrees) at 14 MPH (12 knots; 6.2 m/s)
Visibility: 6 or more miles 10+ km)
Ceiling: 5000 feet AGL
Clouds: broken clouds at 5000 feet AGL
Weather: no significant weather forecast for this period